Time;durP1;ratioP1;P1;durP2;ratioP2;P2;SDS_P1;SDS_P2;PMS_P1;PMS_P2;Temp;Humidity;BMP_temperature;BMP_pressure;BME280_temperature;BME280_humidity;BME280_pressure;Samples;Min_cycle;Max_cycle;Signal;HPM_P1;HPM_P2
2023/06/28 00:01:42;;;;;;;;;1.00;1.00;;;;;;;;5076094;27;45876;-84
2023/06/28 00:04:07;;;;;;;;;2.67;1.00;;;;;;;;5078109;27;46426;-82
2023/06/28 00:06:32;;;;;;;;;1.33;0.33;;;;;;;;5073320;27;45517;-82
2023/06/28 00:08:58;;;;;;;;;3.00;1.00;;;;;;;;5073967;27;45410;-81
2023/06/28 00:11:25;;;;;;;;;2.00;1.00;;;;;;;;5072169;27;45493;-83
2023/06/28 00:13:51;;;;;;;;;1.25;1.25;;;;;;;;5072411;27;47861;-81
2023/06/28 00:16:16;;;;;;;;;3.25;0.75;;;;;;;;5074042;27;45566;-82
2023/06/28 00:18:43;;;;;;;;;0.00;0.00;;;;;;;;5074065;27;45445;-83
2023/06/28 00:21:08;;;;;;;;;2.50;0.75;;;;;;;;5077596;27;45561;-82
2023/06/28 00:23:33;;;;;;;;;1.33;1.00;;;;;;;;5073830;27;45882;-82
2023/06/28 00:25:58;;;;;;;;;0.33;0.00;;;;;;;;5073774;27;45812;-82
2023/06/28 00:28:24;;;;;;;;;2.00;2.00;;;;;;;;5073911;27;45540;-82
2023/06/28 00:30:49;;;;;;;;;1.75;1.00;;;;;;;;5074371;28;45542;-82
2023/06/28 00:33:20;;;;;;;;;2.00;1.00;;;;;;;;5068733;27;45585;-81
2023/06/28 00:35:46;;;;;;;;;1.50;1.00;;;;;;;;5073986;27;45843;-81
2023/06/28 00:38:11;;;;;;;;;1.00;1.00;;;;;;;;5073959;27;45663;-81
2023/06/28 00:40:36;;;;;;;;;1.00;1.00;;;;;;;;5073644;27;45279;-82
2023/06/28 00:43:01;;;;;;;;;1.00;1.00;;;;;;;;5072821;27;45970;-82
2023/06/28 00:45:26;;;;;;;;;1.00;1.00;;;;;;;;5071113;27;45625;-81
2023/06/28 00:47:52;;;;;;;;;0.00;0.00;;;;;;;;5074073;28;45429;-81
2023/06/28 00:50:18;;;;;;;;;0.00;0.00;;;;;;;;5074119;27;45543;-81
2023/06/28 00:52:44;;;;;;;;;0.00;0.00;;;;;;;;5076834;27;45453;-81
2023/06/28 00:55:10;;;;;;;;;1.00;1.00;;;;;;;;5079765;27;46005;-82
2023/06/28 00:57:35;;;;;;;;;0.00;0.00;;;;;;;;5079948;27;45453;-82
2023/06/28 01:00:01;;;;;;;;;1.00;1.00;;;;;;;;5073641;27;45622;-81
2023/06/28 01:02:29;;;;;;;;;1.50;1.00;;;;;;;;5076029;27;46575;-81
2023/06/28 01:04:57;;;;;;;;;0.00;0.00;;;;;;;;5081166;27;45785;-82
2023/06/28 01:07:23;;;;;;;;;1.00;1.00;;;;;;;;5070865;27;45423;-82
2023/06/28 01:09:49;;;;;;;;;0.75;0.75;;;;;;;;5084799;27;45470;-81
2023/06/28 01:12:14;;;;;;;;;1.00;1.00;;;;;;;;5075831;27;46158;-82
2023/06/28 01:14:39;;;;;;;;;3.75;0.75;;;;;;;;5076036;27;45561;-82
2023/06/28 01:17:05;;;;;;;;;0.00;0.00;;;;;;;;5086864;27;45599;-82
2023/06/28 01:19:31;;;;;;;;;1.00;1.00;;;;;;;;5079270;27;46150;-82
2023/06/28 01:21:58;;;;;;;;;0.00;0.00;;;;;;;;5072838;27;46379;-82
2023/06/28 01:24:24;;;;;;;;;2.00;1.00;;;;;;;;5078858;27;45646;-83
2023/06/28 01:26:52;;;;;;;;;1.00;1.00;;;;;;;;5074002;27;45730;-82
2023/06/28 01:29:21;;;;;;;;;1.00;0.00;;;;;;;;5073284;27;45877;-82
2023/06/28 01:31:56;;;;;;;;;1.50;1.00;;;;;;;;5076683;27;46323;-82
2023/06/28 01:34:29;;;;;;;;;1.25;0.25;;;;;;;;5068784;27;45528;-82
2023/06/28 01:36:56;;;;;;;;;0.50;0.50;;;;;;;;5080473;27;45537;-81
2023/06/28 01:39:22;;;;;;;;;3.00;1.00;;;;;;;;5091600;27;45418;-83
2023/06/28 01:41:48;;;;;;;;;1.00;1.00;;;;;;;;5080328;27;46782;-82
2023/06/28 01:44:13;;;;;;;;;1.50;0.25;;;;;;;;5076554;27;45460;-81
2023/06/28 01:46:39;;;;;;;;;0.00;0.00;;;;;;;;5079015;27;45373;-83
2023/06/28 01:49:04;;;;;;;;;1.00;0.00;;;;;;;;5077612;27;45503;-82
2023/06/28 01:51:30;;;;;;;;;1.00;0.67;;;;;;;;5076824;27;46298;-82
2023/06/28 01:53:55;;;;;;;;;5.00;0.75;;;;;;;;5075929;27;45674;-82
2023/06/28 01:56:20;;;;;;;;;0.33;0.33;;;;;;;;5077423;27;45475;-82
2023/06/28 01:58:45;;;;;;;;;1.67;0.00;;;;;;;;5064781;27;45483;-82
2023/06/28 02:01:11;;;;;;;;;1.25;1.00;;;;;;;;5072921;27;46166;-82
2023/06/28 02:03:36;;;;;;;;;1.00;1.00;;;;;;;;5073233;27;45330;-82
2023/06/28 02:06:01;;;;;;;;;1.00;0.33;;;;;;;;5073580;28;45525;-82
2023/06/28 02:08:26;;;;;;;;;1.00;1.00;;;;;;;;5070158;27;45602;-81
2023/06/28 02:10:51;;;;;;;;;0.00;0.00;;;;;;;;5073609;27;46558;-82
2023/06/28 02:13:16;;;;;;;;;1.00;1.00;;;;;;;;5072770;27;45530;-82
2023/06/28 02:15:42;;;;;;;;;3.00;0.00;;;;;;;;5068453;27;45391;-83
2023/06/28 02:18:07;;;;;;;;;1.00;1.00;;;;;;;;5072656;28;45453;-82
2023/06/28 02:20:32;;;;;;;;;2.00;1.00;;;;;;;;5072869;27;46599;-81
2023/06/28 02:22:57;;;;;;;;;2.00;1.00;;;;;;;;5074032;27;45418;-81
2023/06/28 02:25:22;;;;;;;;;1.00;1.00;;;;;;;;5073833;28;45560;-82
2023/06/28 02:27:48;;;;;;;;;2.00;1.00;;;;;;;;5074521;27;45423;-80
2023/06/28 02:30:13;;;;;;;;;2.00;1.00;;;;;;;;5073488;27;45968;-82
2023/06/28 02:32:38;;;;;;;;;1.67;1.67;;;;;;;;5071159;27;45365;-81
2023/06/28 02:35:03;;;;;;;;;2.00;1.00;;;;;;;;5072530;27;45624;-81
2023/06/28 02:37:29;;;;;;;;;2.00;2.00;;;;;;;;5074293;27;45503;-82
2023/06/28 02:39:54;;;;;;;;;4.00;2.00;;;;;;;;5072864;27;45580;-82
2023/06/28 02:42:19;;;;;;;;;3.00;3.00;;;;;;;;5074227;27;45510;-82
2023/06/28 02:44:44;;;;;;;;;2.67;2.00;;;;;;;;5070700;27;45749;-82
2023/06/28 02:47:09;;;;;;;;;1.00;1.00;;;;;;;;5075153;27;45395;-82
2023/06/28 02:49:35;;;;;;;;;3.00;1.00;;;;;;;;5076302;27;45359;-81
2023/06/28 02:52:00;;;;;;;;;1.00;1.00;;;;;;;;5076804;27;45531;-82
2023/06/28 02:54:25;;;;;;;;;2.33;1.00;;;;;;;;5077608;27;45395;-82
2023/06/28 02:56:50;;;;;;;;;1.00;1.00;;;;;;;;5077015;27;45465;-82
2023/06/28 02:59:16;;;;;;;;;1.00;0.00;;;;;;;;5077366;27;45627;-82
2023/06/28 03:01:41;;;;;;;;;1.00;1.00;;;;;;;;5083181;27;46420;-82
2023/06/28 03:04:07;;;;;;;;;0.50;0.50;;;;;;;;5077383;27;45440;-81
2023/06/28 03:06:32;;;;;;;;;1.00;1.00;;;;;;;;5073792;27;45837;-83
2023/06/28 03:08:57;;;;;;;;;0.00;0.00;;;;;;;;5077096;27;45401;-82
2023/06/28 03:11:22;;;;;;;;;5.33;1.33;;;;;;;;5076851;27;45416;-82
2023/06/28 03:13:48;;;;;;;;;2.33;0.67;;;;;;;;5077249;27;45445;-82
2023/06/28 03:16:13;;;;;;;;;1.00;0.00;;;;;;;;5077223;27;45495;-82
2023/06/28 03:18:38;;;;;;;;;1.00;1.00;;;;;;;;5076223;27;46240;-81
2023/06/28 03:21:03;;;;;;;;;5.33;1.33;;;;;;;;5077357;27;45410;-81
2023/06/28 03:23:28;;;;;;;;;0.67;0.67;;;;;;;;5071397;27;45556;-81
2023/06/28 03:25:54;;;;;;;;;1.00;1.00;;;;;;;;5077030;27;45369;-81
2023/06/28 03:28:19;;;;;;;;;2.00;0.00;;;;;;;;5076395;28;47561;-81
2023/06/28 03:30:44;;;;;;;;;0.00;0.00;;;;;;;;5076963;27;45299;-81
2023/06/28 03:33:09;;;;;;;;;1.67;0.33;;;;;;;;5076586;27;45288;-81
2023/06/28 03:35:34;;;;;;;;;1.00;1.00;;;;;;;;5077187;27;45425;-81
2023/06/28 03:38:00;;;;;;;;;2.00;0.00;;;;;;;;5075762;27;46579;-81
2023/06/28 03:40:25;;;;;;;;;1.00;1.00;;;;;;;;5070867;27;45486;-82
2023/06/28 03:42:50;;;;;;;;;0.00;0.00;;;;;;;;5071785;27;45560;-80
2023/06/28 03:45:15;;;;;;;;;2.33;1.00;;;;;;;;5073542;27;46373;-81
2023/06/28 03:47:41;;;;;;;;;1.00;0.75;;;;;;;;5076818;28;45491;-82
2023/06/28 03:50:06;;;;;;;;;3.00;0.75;;;;;;;;5075850;28;45606;-81
2023/06/28 03:52:32;;;;;;;;;0.00;0.00;;;;;;;;5076502;27;45450;-81
2023/06/28 03:54:57;;;;;;;;;0.50;0.50;;;;;;;;5076002;28;45325;-81
2023/06/28 03:57:22;;;;;;;;;1.00;0.00;;;;;;;;5073462;27;45574;-81
2023/06/28 03:59:47;;;;;;;;;0.67;0.67;;;;;;;;5074908;27;45419;-81
2023/06/28 04:02:13;;;;;;;;;2.00;0.33;;;;;;;;5076310;27;45677;-81
2023/06/28 04:04:39;;;;;;;;;3.00;1.00;;;;;;;;5076171;27;45457;-82
2023/06/28 04:07:04;;;;;;;;;0.50;0.50;;;;;;;;5075761;27;46159;-82
2023/06/28 04:09:29;;;;;;;;;2.00;1.00;;;;;;;;5076480;27;45283;-82
2023/06/28 04:11:55;;;;;;;;;0.33;0.33;;;;;;;;5074347;27;45490;-81
2023/06/28 04:14:20;;;;;;;;;1.50;1.00;;;;;;;;5074956;27;45600;-81
2023/06/28 04:16:45;;;;;;;;;2.00;0.00;;;;;;;;5075814;27;46686;-83
2023/06/28 04:19:10;;;;;;;;;4.00;1.00;;;;;;;;5075969;27;45334;-81
2023/06/28 04:21:36;;;;;;;;;0.75;0.75;;;;;;;;5075554;27;45409;-81
2023/06/28 04:24:01;;;;;;;;;0.00;0.00;;;;;;;;5075934;27;45390;-81
2023/06/28 04:26:26;;;;;;;;;1.00;1.00;;;;;;;;5075548;27;45450;-80
2023/06/28 04:28:51;;;;;;;;;2.00;0.00;;;;;;;;5075692;27;45331;-80
2023/06/28 04:31:17;;;;;;;;;1.25;1.00;;;;;;;;5072965;27;45628;-79
2023/06/28 04:33:42;;;;;;;;;0.67;0.67;;;;;;;;5075918;27;45397;-80
2023/06/28 04:36:07;;;;;;;;;4.00;1.33;;;;;;;;5075407;27;47229;-80
2023/06/28 04:38:32;;;;;;;;;4.00;1.00;;;;;;;;5073935;27;46524;-79
2023/06/28 04:40:58;;;;;;;;;2.00;0.67;;;;;;;;5076172;27;45554;-81
2023/06/28 04:43:23;;;;;;;;;2.25;2.00;;;;;;;;5075382;27;45268;-81
2023/06/28 04:45:48;;;;;;;;;2.67;1.00;;;;;;;;5073117;27;46095;-80
2023/06/28 04:48:14;;;;;;;;;1.00;1.00;;;;;;;;5066607;27;45319;-81
2023/06/28 04:50:39;;;;;;;;;3.25;1.00;;;;;;;;5075632;27;45355;-81
2023/06/28 04:53:04;;;;;;;;;4.33;2.00;;;;;;;;5075603;27;45386;-80
2023/06/28 04:55:32;;;;;;;;;3.75;2.00;;;;;;;;5075684;27;46459;-81
2023/06/28 04:58:07;;;;;;;;;5.25;1.00;;;;;;;;5073992;27;45352;-80
2023/06/28 05:00:33;;;;;;;;;2.50;1.75;;;;;;;;5075537;27;45438;-80
2023/06/28 05:03:00;;;;;;;;;1.25;1.00;;;;;;;;5075541;27;45555;-80
2023/06/28 05:05:26;;;;;;;;;1.50;1.00;;;;;;;;5069902;28;45463;-81
2023/06/28 05:07:52;;;;;;;;;2.25;1.00;;;;;;;;5075386;27;45458;-80
2023/06/28 05:10:18;;;;;;;;;4.00;2.00;;;;;;;;5074733;27;45459;-80
2023/06/28 05:12:43;;;;;;;;;2.00;1.00;;;;;;;;5075488;27;45427;-81
2023/06/28 05:15:08;;;;;;;;;0.67;0.67;;;;;;;;5074947;27;47178;-81
2023/06/28 05:17:33;;;;;;;;;1.75;1.00;;;;;;;;5075523;27;45267;-81
2023/06/28 05:19:59;;;;;;;;;0.67;0.33;;;;;;;;5074419;27;45259;-80
2023/06/28 05:22:26;;;;;;;;;5.00;1.67;;;;;;;;5072555;27;45339;-81
2023/06/28 05:24:51;;;;;;;;;2.75;1.00;;;;;;;;5074603;27;46506;-80
2023/06/28 05:27:16;;;;;;;;;3.00;1.00;;;;;;;;5075226;28;45450;-81
2023/06/28 05:29:41;;;;;;;;;0.00;0.00;;;;;;;;5075234;27;45266;-81
2023/06/28 05:32:06;;;;;;;;;1.00;1.00;;;;;;;;5074956;27;45323;-80
2023/06/28 05:34:32;;;;;;;;;2.25;1.00;;;;;;;;5074692;27;45970;-80
2023/06/28 05:36:57;;;;;;;;;3.33;1.00;;;;;;;;5074576;27;45270;-80
2023/06/28 05:39:22;;;;;;;;;4.00;1.00;;;;;;;;5074075;27;45453;-81
2023/06/28 05:41:48;;;;;;;;;5.67;0.33;;;;;;;;5072322;27;45354;-81
2023/06/28 05:44:16;;;;;;;;;1.25;0.00;;;;;;;;5074526;27;46188;-80
2023/06/28 05:46:41;;;;;;;;;4.25;1.00;;;;;;;;5074225;27;45498;-81
2023/06/28 05:49:07;;;;;;;;;1.00;1.00;;;;;;;;5074769;27;45518;-81
2023/06/28 05:51:34;;;;;;;;;1.25;1.25;;;;;;;;5074505;27;45505;-80
2023/06/28 05:54:00;;;;;;;;;2.00;1.00;;;;;;;;5074425;27;46950;-81
2023/06/28 05:56:25;;;;;;;;;0.00;0.00;;;;;;;;5072439;28;45412;-80
2023/06/28 05:58:50;;;;;;;;;1.00;1.00;;;;;;;;5054310;28;45520;-79
2023/06/28 06:01:15;;;;;;;;;2.00;1.00;;;;;;;;5054784;28;45298;-79
2023/06/28 06:03:40;;;;;;;;;1.00;1.00;;;;;;;;5053582;28;45982;-79
2023/06/28 06:06:05;;;;;;;;;1.00;0.00;;;;;;;;5054250;28;45449;-83
2023/06/28 06:08:31;;;;;;;;;3.00;1.00;;;;;;;;5054375;28;45427;-81
2023/06/28 06:10:56;;;;;;;;;3.00;1.00;;;;;;;;5054444;28;45288;-82
2023/06/28 06:13:21;;;;;;;;;1.00;1.00;;;;;;;;5051408;28;46627;-84
2023/06/28 06:15:46;;;;;;;;;1.33;1.00;;;;;;;;5062357;28;45432;-82
2023/06/28 06:18:11;;;;;;;;;3.00;1.00;;;;;;;;5053460;28;45435;-83
2023/06/28 06:20:37;;;;;;;;;1.00;1.00;;;;;;;;5056396;28;45549;-85
2023/06/28 06:23:02;;;;;;;;;3.00;1.33;;;;;;;;5053245;28;46500;-81
2023/06/28 06:25:27;;;;;;;;;1.00;1.00;;;;;;;;5054146;28;45491;-84
2023/06/28 06:27:52;;;;;;;;;0.00;0.00;;;;;;;;5054352;28;45366;-82
2023/06/28 06:30:17;;;;;;;;;3.00;0.67;;;;;;;;5051434;28;45572;-83
2023/06/28 06:32:43;;;;;;;;;2.33;0.00;;;;;;;;5056080;28;45927;-88
2023/06/28 06:35:08;;;;;;;;;1.00;1.00;;;;;;;;5053975;28;45467;-88
2023/06/28 06:37:33;;;;;;;;;1.00;1.00;;;;;;;;5055615;28;45358;-90
2023/06/28 06:39:58;;;;;;;;;1.00;1.00;;;;;;;;5053320;28;45504;-84
2023/06/28 06:42:24;;;;;;;;;1.00;1.00;;;;;;;;5059898;28;45745;-82
2023/06/28 06:44:49;;;;;;;;;0.75;0.75;;;;;;;;5052977;28;45570;-81
2023/06/28 06:47:14;;;;;;;;;2.33;2.33;;;;;;;;5051699;28;45518;-81
2023/06/28 06:49:39;;;;;;;;;5.00;0.50;;;;;;;;5053648;28;45542;-82
2023/06/28 06:52:05;;;;;;;;;3.00;1.00;;;;;;;;5053324;28;47008;-80
2023/06/28 06:54:30;;;;;;;;;2.00;0.75;;;;;;;;5053086;28;46287;-81
2023/06/28 06:56:56;;;;;;;;;1.00;1.00;;;;;;;;5057688;28;45627;-81
2023/06/28 06:59:23;;;;;;;;;1.25;0.25;;;;;;;;5060022;27;45641;-81
2023/06/28 07:01:48;;;;;;;;;1.00;0.00;;;;;;;;5071227;28;46949;-80
2023/06/28 07:04:14;;;;;;;;;4.25;0.75;;;;;;;;5064568;27;45683;-82
2023/06/28 07:06:39;;;;;;;;;1.00;1.00;;;;;;;;5071004;27;45785;-83
2023/06/28 07:09:04;;;;;;;;;1.00;1.00;;;;;;;;5072897;27;45741;-82
2023/06/28 07:11:30;;;;;;;;;2.00;1.00;;;;;;;;5072567;28;46054;-83
2023/06/28 07:13:55;;;;;;;;;2.00;1.00;;;;;;;;5073022;27;45262;-82
2023/06/28 07:16:20;;;;;;;;;1.00;1.00;;;;;;;;5073451;27;45402;-82
2023/06/28 07:18:46;;;;;;;;;3.00;2.00;;;;;;;;5073477;27;45517;-80
2023/06/28 07:21:14;;;;;;;;;0.50;0.00;;;;;;;;5069946;27;47085;-81
2023/06/28 07:23:39;;;;;;;;;0.50;0.50;;;;;;;;5072936;27;45920;-81
2023/06/28 07:26:04;;;;;;;;;4.00;0.33;;;;;;;;5070919;27;45496;-80
2023/06/28 07:28:29;;;;;;;;;2.00;0.00;;;;;;;;5072681;27;46607;-80
2023/06/28 07:30:56;;;;;;;;;2.00;1.67;;;;;;;;5075755;27;46680;-80
2023/06/28 07:33:22;;;;;;;;;2.00;1.00;;;;;;;;5076660;27;45419;-80
2023/06/28 07:35:47;;;;;;;;;2.00;1.00;;;;;;;;5078222;27;45425;-82
2023/06/28 07:38:12;;;;;;;;;3.00;1.00;;;;;;;;5067258;27;45437;-80
2023/06/28 07:40:38;;;;;;;;;1.00;1.00;;;;;;;;5077109;27;45455;-80
2023/06/28 07:43:03;;;;;;;;;2.00;2.00;;;;;;;;5075856;27;45399;-80
2023/06/28 07:45:28;;;;;;;;;2.00;1.00;;;;;;;;5077107;27;45528;-80
2023/06/28 07:47:53;;;;;;;;;1.67;1.00;;;;;;;;5076812;27;45463;-79
2023/06/28 07:50:20;;;;;;;;;1.00;1.00;;;;;;;;5078128;27;45404;-79
2023/06/28 07:52:46;;;;;;;;;4.00;2.00;;;;;;;;5076541;27;45607;-80
2023/06/28 07:55:11;;;;;;;;;2.00;1.00;;;;;;;;5075447;27;45307;-79
2023/06/28 07:57:36;;;;;;;;;2.67;1.00;;;;;;;;5083786;27;45272;-79
2023/06/28 08:00:03;;;;;;;;;1.00;1.00;;;;;;;;5080837;27;46013;-79
2023/06/28 08:02:28;;;;;;;;;2.25;1.00;;;;;;;;5080092;27;45707;-81
2023/06/28 08:04:53;;;;;;;;;2.00;1.00;;;;;;;;5077403;27;45473;-79
2023/06/28 08:07:19;;;;;;;;;2.00;1.00;;;;;;;;5082030;27;45413;-80
2023/06/28 08:09:44;;;;;;;;;3.00;2.00;;;;;;;;5076959;27;45796;-80
2023/06/28 08:12:09;;;;;;;;;2.00;1.00;;;;;;;;5072571;28;45450;-81
2023/06/28 08:14:35;;;;;;;;;3.50;2.00;;;;;;;;5077673;27;45417;-80
2023/06/28 08:17:00;;;;;;;;;2.50;0.25;;;;;;;;5075848;27;46452;-79
2023/06/28 08:19:26;;;;;;;;;3.00;1.00;;;;;;;;5080590;27;46173;-80
2023/06/28 08:21:51;;;;;;;;;1.00;1.00;;;;;;;;5075523;27;45454;-80
2023/06/28 08:24:17;;;;;;;;;1.75;1.50;;;;;;;;5075738;27;45431;-80
2023/06/28 08:26:42;;;;;;;;;2.00;2.00;;;;;;;;5078361;27;45424;-80
2023/06/28 08:29:07;;;;;;;;;3.00;1.00;;;;;;;;5080295;27;45993;-80
2023/06/28 08:31:34;;;;;;;;;0.33;0.33;;;;;;;;5075376;27;45434;-80
2023/06/28 08:34:00;;;;;;;;;3.50;1.00;;;;;;;;5076801;27;45454;-81
2023/06/28 08:36:25;;;;;;;;;3.50;2.00;;;;;;;;5075303;27;45296;-82
2023/06/28 08:38:50;;;;;;;;;2.00;0.33;;;;;;;;5078868;27;45938;-81
2023/06/28 08:41:17;;;;;;;;;1.33;0.33;;;;;;;;5075354;27;45487;-82
2023/06/28 08:43:42;;;;;;;;;3.00;1.50;;;;;;;;5075243;27;45525;-81
2023/06/28 08:46:08;;;;;;;;;1.00;1.00;;;;;;;;5077823;27;45544;-80
2023/06/28 08:48:33;;;;;;;;;3.75;0.50;;;;;;;;5074404;27;46080;-80
2023/06/28 08:50:59;;;;;;;;;1.50;1.50;;;;;;;;5075839;28;45427;-81
2023/06/28 08:53:28;;;;;;;;;2.50;2.50;;;;;;;;5077969;27;46051;-80
2023/06/28 08:55:54;;;;;;;;;3.00;0.75;;;;;;;;5081393;27;45435;-80
2023/06/28 08:58:20;;;;;;;;;4.25;0.75;;;;;;;;5072863;27;46109;-80
2023/06/28 09:00:45;;;;;;;;;2.75;1.00;;;;;;;;5075286;27;45432;-81
2023/06/28 09:03:10;;;;;;;;;3.00;1.00;;;;;;;;5069163;27;45441;-80
2023/06/28 09:05:36;;;;;;;;;2.00;1.75;;;;;;;;5075023;27;45443;-80
2023/06/28 09:08:02;;;;;;;;;3.00;1.75;;;;;;;;5074887;27;45512;-80
2023/06/28 09:10:27;;;;;;;;;2.00;1.75;;;;;;;;5079388;27;45411;-80
2023/06/28 09:12:52;;;;;;;;;7.00;2.00;;;;;;;;5083625;27;45252;-80
2023/06/28 09:15:20;;;;;;;;;3.00;2.00;;;;;;;;5075128;27;45503;-79
2023/06/28 09:17:46;;;;;;;;;2.25;1.75;;;;;;;;5075298;27;47284;-80
2023/06/28 09:20:18;;;;;;;;;0.25;0.25;;;;;;;;5073741;27;45366;-80
2023/06/28 09:22:57;;;;;;;;;7.25;2.00;;;;;;;;5077838;27;45707;-79
2023/06/28 09:25:23;;;;;;;;;1.00;1.00;;;;;;;;5074431;27;45841;-79
2023/06/28 09:27:48;;;;;;;;;2.75;1.75;;;;;;;;5080265;27;45407;-80
2023/06/28 09:30:17;;;;;;;;;4.33;3.00;;;;;;;;5074371;28;45448;-79
2023/06/28 09:32:45;;;;;;;;;3.00;1.50;;;;;;;;5076865;27;45357;-80
2023/06/28 09:35:13;;;;;;;;;2.25;2.25;;;;;;;;5068246;27;47087;-79
2023/06/28 09:37:38;;;;;;;;;3.25;1.75;;;;;;;;5074367;27;47324;-78
2023/06/28 09:40:06;;;;;;;;;3.50;3.00;;;;;;;;5074630;27;45448;-79
2023/06/28 09:42:31;;;;;;;;;2.75;2.00;;;;;;;;5074785;28;45632;-79
2023/06/28 09:44:56;;;;;;;;;3.50;2.00;;;;;;;;5077749;27;45505;-79
2023/06/28 09:47:30;;;;;;;;;2.67;2.00;;;;;;;;5075480;27;45408;-79
2023/06/28 09:50:00;;;;;;;;;6.00;3.00;;;;;;;;5074301;27;45862;-80
2023/06/28 09:52:26;;;;;;;;;6.00;4.00;;;;;;;;5076348;27;45737;-80
2023/06/28 09:54:51;;;;;;;;;7.50;4.25;;;;;;;;5072743;27;45580;-79
2023/06/28 09:57:17;;;;;;;;;2.00;2.00;;;;;;;;5080768;27;45772;-80
2023/06/28 09:59:43;;;;;;;;;3.00;3.00;;;;;;;;5076727;27;45426;-80
2023/06/28 10:02:09;;;;;;;;;7.50;4.00;;;;;;;;5080631;27;45477;-81
2023/06/28 10:04:35;;;;;;;;;3.00;3.00;;;;;;;;5078610;27;45752;-80
2023/06/28 10:07:02;;;;;;;;;9.50;4.00;;;;;;;;5077364;27;47396;-81
2023/06/28 10:09:29;;;;;;;;;7.75;3.75;;;;;;;;5074039;27;45375;-81
2023/06/28 10:11:56;;;;;;;;;6.50;4.00;;;;;;;;5072489;27;45469;-80
2023/06/28 10:14:21;;;;;;;;;8.50;4.00;;;;;;;;5071247;27;45411;-81
2023/06/28 10:16:47;;;;;;;;;6.00;3.00;;;;;;;;5062435;27;46120;-81
2023/06/28 10:19:12;;;;;;;;;5.00;2.75;;;;;;;;5059194;27;45501;-79
2023/06/28 10:21:38;;;;;;;;;4.00;3.00;;;;;;;;5066240;27;45512;-80
2023/06/28 10:24:05;;;;;;;;;4.25;3.00;;;;;;;;5079255;27;45427;-79
2023/06/28 10:26:30;;;;;;;;;4.25;4.00;;;;;;;;5073043;27;45453;-79
2023/06/28 10:28:57;;;;;;;;;6.67;3.33;;;;;;;;5065590;27;45409;-79
2023/06/28 10:31:23;;;;;;;;;3.25;3.25;;;;;;;;5073898;28;45417;-79
2023/06/28 10:33:49;;;;;;;;;4.25;3.75;;;;;;;;5073924;27;45454;-79
2023/06/28 10:36:14;;;;;;;;;4.50;3.00;;;;;;;;5073712;28;46419;-79
2023/06/28 10:38:43;;;;;;;;;4.00;2.50;;;;;;;;5072614;27;45403;-77
2023/06/28 10:41:12;;;;;;;;;4.00;3.00;;;;;;;;5074038;27;45406;-79
2023/06/28 10:43:38;;;;;;;;;7.25;4.00;;;;;;;;5074042;27;45443;-78
2023/06/28 10:46:19;;;;;;;;;7.00;4.75;;;;;;;;5082190;27;46070;-78
2023/06/28 10:48:45;;;;;;;;;3.00;3.00;;;;;;;;5073014;27;45505;-79
2023/06/28 10:51:13;;;;;;;;;5.00;4.00;;;;;;;;5074097;28;45405;-79
2023/06/28 10:53:50;;;;;;;;;6.25;4.00;;;;;;;;5072947;27;45653;-78
2023/06/28 10:56:17;;;;;;;;;7.00;3.75;;;;;;;;5067488;27;46219;-79
2023/06/28 10:58:44;;;;;;;;;6.25;4.00;;;;;;;;5073963;27;46007;-81
2023/06/28 11:01:10;;;;;;;;;7.50;4.25;;;;;;;;5072182;27;45385;-80
2023/06/28 11:03:38;;;;;;;;;6.75;5.00;;;;;;;;5071056;27;45408;-79
2023/06/28 11:06:03;;;;;;;;;5.75;4.50;;;;;;;;5074881;27;46126;-78
2023/06/28 11:08:37;;;;;;;;;8.33;5.33;;;;;;;;5074486;28;45483;-80
2023/06/28 11:11:02;;;;;;;;;5.75;3.00;;;;;;;;5077546;27;45487;-79
2023/06/28 11:13:39;;;;;;;;;3.00;3.00;;;;;;;;5075689;27;45552;-80
2023/06/28 11:16:19;;;;;;;;;4.75;3.25;;;;;;;;5069435;27;45553;-81
2023/06/28 11:18:45;;;;;;;;;6.75;6.00;;;;;;;;5075947;27;45776;-79
2023/06/28 11:21:24;;;;;;;;;8.00;4.00;;;;;;;;5076941;27;45456;-81
2023/06/28 11:23:52;;;;;;;;;10.75;7.00;;;;;;;;5078150;27;45466;-80
2023/06/28 11:26:30;;;;;;;;;10.25;4.75;;;;;;;;5077947;27;46496;-82
2023/06/28 11:28:55;;;;;;;;;7.25;3.75;;;;;;;;5080180;27;45410;-82
2023/06/28 11:31:25;;;;;;;;;3.67;3.67;;;;;;;;5078268;27;45217;-81
2023/06/28 11:33:51;;;;;;;;;10.00;6.25;;;;;;;;5076719;27;45528;-80
2023/06/28 11:36:16;;;;;;;;;6.00;4.00;;;;;;;;5072880;27;46676;-80
2023/06/28 11:38:43;;;;;;;;;8.25;6.25;;;;;;;;5076623;27;45439;-79
2023/06/28 11:41:08;;;;;;;;;7.50;5.25;;;;;;;;5078540;27;45488;-80
2023/06/28 11:43:33;;;;;;;;;7.75;4.25;;;;;;;;5076213;27;45387;-80
2023/06/28 11:45:59;;;;;;;;;7.33;7.00;;;;;;;;5077497;27;45375;-81
2023/06/28 11:48:24;;;;;;;;;8.00;6.00;;;;;;;;5075613;27;45650;-82
2023/06/28 11:50:57;;;;;;;;;8.75;7.00;;;;;;;;5076281;27;45393;-83
2023/06/28 11:53:22;;;;;;;;;12.75;5.75;;;;;;;;5070473;27;45642;-82
2023/06/28 11:55:48;;;;;;;;;7.50;6.25;;;;;;;;5075240;27;46205;-81
2023/06/28 11:58:13;;;;;;;;;8.00;4.67;;;;;;;;5075846;27;45779;-80
2023/06/28 12:00:38;;;;;;;;;5.00;4.33;;;;;;;;5073244;27;46120;-80
2023/06/28 12:03:03;;;;;;;;;7.50;6.00;;;;;;;;5075526;27;45459;-80
2023/06/28 12:05:29;;;;;;;;;7.67;5.33;;;;;;;;5069838;27;48442;-80
2023/06/28 12:07:56;;;;;;;;;9.75;5.25;;;;;;;;5082597;27;45385;-81
2023/06/28 12:10:21;;;;;;;;;6.75;4.00;;;;;;;;5080108;27;45811;-80
2023/06/28 12:12:46;;;;;;;;;9.50;5.00;;;;;;;;5072855;27;45340;-80
2023/06/28 12:15:15;;;;;;;;;5.00;5.00;;;;;;;;5075303;27;45359;-81
2023/06/28 12:17:41;;;;;;;;;13.00;5.25;;;;;;;;5079106;27;45802;-82
2023/06/28 12:20:07;;;;;;;;;6.00;4.75;;;;;;;;5084345;27;45496;-81
2023/06/28 12:22:39;;;;;;;;;10.00;5.75;;;;;;;;5077394;27;45381;-81
2023/06/28 12:25:05;;;;;;;;;10.00;7.00;;;;;;;;5079793;27;46393;-81
2023/06/28 12:27:31;;;;;;;;;6.00;4.25;;;;;;;;5072018;27;45419;-81
2023/06/28 12:29:56;;;;;;;;;7.25;5.75;;;;;;;;5075426;27;45561;-80
2023/06/28 12:32:23;;;;;;;;;7.00;5.25;;;;;;;;5075833;27;45498;-82
2023/06/28 12:34:49;;;;;;;;;9.25;5.75;;;;;;;;5076953;27;46149;-83
2023/06/28 12:37:14;;;;;;;;;6.50;4.50;;;;;;;;5079563;27;45568;-85
2023/06/28 12:39:40;;;;;;;;;5.67;4.67;;;;;;;;5075736;27;45384;-85
2023/06/28 12:42:22;;;;;;;;;6.50;5.25;;;;;;;;5065550;27;45444;-83
2023/06/28 12:44:51;;;;;;;;;6.00;4.75;;;;;;;;5073646;27;45503;-85
2023/06/28 12:47:17;;;;;;;;;8.25;5.75;;;;;;;;5067868;27;45752;-83
2023/06/28 12:49:44;;;;;;;;;9.75;5.50;;;;;;;;5057300;27;45673;-85
2023/06/28 12:52:09;;;;;;;;;6.50;4.75;;;;;;;;5060607;27;45622;-84
2023/06/28 12:54:34;;;;;;;;;4.75;3.25;;;;;;;;5071875;27;46967;-83
2023/06/28 12:57:00;;;;;;;;;9.67;6.00;;;;;;;;5072111;27;45468;-84
2023/06/28 12:59:26;;;;;;;;;4.25;4.25;;;;;;;;5075545;28;45402;-84
2023/06/28 13:01:51;;;;;;;;;6.00;4.25;;;;;;;;5070809;27;45725;-86
2023/06/28 13:04:16;;;;;;;;;3.00;2.67;;;;;;;;5073145;27;46399;-84
2023/06/28 13:06:41;;;;;;;;;9.67;5.67;;;;;;;;5074637;27;45492;-84
2023/06/28 13:09:06;;;;;;;;;6.33;1.00;;;;;;;;5075449;27;45472;-84
2023/06/28 13:11:33;;;;;;;;;9.00;5.00;;;;;;;;5074918;27;45501;-82
2023/06/28 13:13:58;;;;;;;;;10.50;5.00;;;;;;;;5066180;27;45520;-83
2023/06/28 13:16:23;;;;;;;;;7.50;3.75;;;;;;;;5061426;27;45474;-83
2023/06/28 13:18:49;;;;;;;;;6.00;4.00;;;;;;;;5069611;27;45745;-83
2023/06/28 13:21:15;;;;;;;;;7.67;6.00;;;;;;;;5075748;27;45427;-82
2023/06/28 13:23:40;;;;;;;;;11.25;6.50;;;;;;;;5066345;27;45524;-83
2023/06/28 13:26:05;;;;;;;;;7.67;4.00;;;;;;;;5069242;27;45436;-84
2023/06/28 13:28:31;;;;;;;;;10.33;5.00;;;;;;;;5066123;27;45416;-81
2023/06/28 13:30:56;;;;;;;;;4.67;2.00;;;;;;;;5074502;28;45590;-82
2023/06/28 13:33:21;;;;;;;;;6.33;3.67;;;;;;;;5077174;27;48348;-83
2023/06/28 13:35:46;;;;;;;;;3.33;3.00;;;;;;;;5076092;27;45396;-84
2023/06/28 13:38:12;;;;;;;;;4.67;4.67;;;;;;;;5078419;27;45390;-83
2023/06/28 13:40:37;;;;;;;;;8.00;5.00;;;;;;;;5073707;27;45399;-84
2023/06/28 13:43:04;;;;;;;;;13.00;6.67;;;;;;;;5074758;27;46543;-84
2023/06/28 13:45:30;;;;;;;;;7.00;4.00;;;;;;;;5073657;27;45842;-85
2023/06/28 13:47:55;;;;;;;;;8.67;5.00;;;;;;;;5082079;27;45453;-84
2023/06/28 13:50:20;;;;;;;;;6.33;5.00;;;;;;;;5081261;27;45702;-84
2023/06/28 13:52:45;;;;;;;;;9.00;4.67;;;;;;;;5074019;27;47078;-85
2023/06/28 13:55:10;;;;;;;;;6.67;4.33;;;;;;;;5070458;27;46606;-85
2023/06/28 13:57:35;;;;;;;;;8.67;4.67;;;;;;;;5077104;27;45520;-84
2023/06/28 14:00:01;;;;;;;;;8.00;5.00;;;;;;;;5074311;27;45350;-84
2023/06/28 14:02:27;;;;;;;;;8.25;5.00;;;;;;;;5074251;27;47458;-85
2023/06/28 14:04:52;;;;;;;;;6.00;4.00;;;;;;;;5073656;28;45395;-85
2023/06/28 14:07:18;;;;;;;;;5.75;5.00;;;;;;;;5074054;27;45305;-84
2023/06/28 14:09:43;;;;;;;;;4.33;3.33;;;;;;;;5079334;27;45986;-84
2023/06/28 14:12:08;;;;;;;;;8.00;5.00;;;;;;;;5073593;27;46254;-84
2023/06/28 14:14:33;;;;;;;;;6.00;4.75;;;;;;;;5072558;27;45583;-85
2023/06/28 14:16:59;;;;;;;;;7.00;4.00;;;;;;;;5076861;27;45388;-86
2023/06/28 14:19:24;;;;;;;;;5.75;4.75;;;;;;;;5068521;27;45762;-85
2023/06/28 14:21:49;;;;;;;;;7.00;3.75;;;;;;;;5061966;27;46051;-85
2023/06/28 14:24:15;;;;;;;;;5.33;3.67;;;;;;;;5075663;27;45436;-84
2023/06/28 14:26:40;;;;;;;;;4.00;4.00;;;;;;;;5070133;27;45626;-82
2023/06/28 14:29:05;;;;;;;;;4.00;3.50;;;;;;;;5077608;27;45465;-84
2023/06/28 14:31:31;;;;;;;;;5.50;4.00;;;;;;;;5078121;27;45828;-84
2023/06/28 14:33:56;;;;;;;;;6.50;5.00;;;;;;;;5076262;27;45468;-85
2023/06/28 14:36:23;;;;;;;;;4.33;4.33;;;;;;;;5081101;27;45441;-86